Time;durP1;ratioP1;P1;durP2;ratioP2;P2;SDS_P1;SDS_P2;PMS_P1;PMS_P2;Temp;Humidity;BMP_temperature;BMP_pressure;BME280_temperature;BME280_humidity;BME280_pressure;Samples;Min_cycle;Max_cycle;Signal;HPM_P1;HPM_P2
2023/05/03 00:00:20;;;;;;;11.70;9.60;;;13.50;99.90;;;;;;5080908;28;20016;-80
2023/05/03 00:02:46;;;;;;;18.08;10.23;;;13.50;99.90;;;;;;5093970;28;20099;-81
2023/05/03 00:05:13;;;;;;;13.23;10.38;;;13.40;99.90;;;;;;5095989;28;20031;-81
2023/05/03 00:07:42;;;;;;;14.13;9.77;;;13.40;99.90;;;;;;5101937;28;20377;-80
2023/05/03 00:10:09;;;;;;;15.15;10.13;;;13.40;99.90;;;;;;5095775;28;20024;-80
2023/05/03 00:12:43;;;;;;;12.60;9.60;;;13.30;99.90;;;;;;5103113;28;20019;-82
2023/05/03 00:15:10;;;;;;;12.45;8.93;;;13.40;99.90;;;;;;5095270;28;20082;-80
2023/05/03 00:17:36;;;;;;;13.27;8.98;;;13.30;99.90;;;;;;5094812;28;20031;-82
2023/05/03 00:20:03;;;;;;;11.55;9.60;;;13.40;99.90;;;;;;5096741;28;20376;-80
2023/05/03 00:22:29;;;;;;;13.23;9.02;;;13.30;99.90;;;;;;5096105;28;20586;-80
2023/05/03 00:24:55;;;;;;;14.32;10.02;;;13.30;99.90;;;;;;5094382;28;20048;-79
2023/05/03 00:27:23;;;;;;;17.30;10.18;;;13.30;99.90;;;;;;5094777;28;20032;-80
2023/05/03 00:29:51;;;;;;;13.38;9.35;;;13.30;99.90;;;;;;5094767;28;20450;-80
2023/05/03 00:32:17;;;;;;;14.45;10.30;;;13.40;99.90;;;;;;5096086;28;20024;-80
2023/05/03 00:34:43;;;;;;;13.88;10.88;;;13.40;99.90;;;;;;5081599;28;20046;-80
2023/05/03 00:37:09;;;;;;;14.85;11.23;;;13.40;99.90;;;;;;5095836;28;20462;-81
2023/05/03 00:39:35;;;;;;;17.75;11.50;;;13.40;99.90;;;;;;5095673;28;20016;-81
2023/05/03 00:42:05;;;;;;;20.92;11.60;;;13.50;99.90;;;;;;5096269;28;20104;-81
2023/05/03 00:44:31;;;;;;;19.08;11.93;;;13.50;99.90;;;;;;5095831;28;20359;-81
2023/05/03 00:46:57;;;;;;;12.60;9.38;;;13.40;99.90;;;;;;5089775;28;20085;-82
2023/05/03 00:49:26;;;;;;;18.27;10.32;;;13.30;99.90;;;;;;5094453;28;20054;-80
2023/05/03 00:51:53;;;;;;;16.90;10.77;;;13.20;99.90;;;;;;5094429;28;20039;-80
2023/05/03 00:54:21;;;;;;;15.57;10.25;;;13.30;99.90;;;;;;5095474;28;20529;-80
2023/05/03 00:56:47;;;;;;;15.35;11.30;;;13.40;99.90;;;;;;5085701;28;20055;-79
2023/05/03 00:59:13;;;;;;;16.55;11.52;;;13.50;99.90;;;;;;5103069;28;20078;-80
2023/05/03 01:01:39;;;;;;;21.73;11.63;;;13.50;99.90;;;;;;5094055;28;20475;-81
2023/05/03 01:04:06;;;;;;;12.57;9.68;;;13.50;99.90;;;;;;5085854;28;20015;-80
2023/05/03 01:06:44;;;;;;;17.30;11.23;;;13.40;99.90;;;;;;5088973;28;20074;-79
2023/05/03 01:09:31;;;;;;;15.93;11.55;;;13.50;99.90;;;;;;5105902;28;20108;-80
2023/05/03 01:12:11;;;;;;;14.50;10.85;;;13.50;99.90;;;;;;5115824;28;20059;-80
2023/05/03 01:15:05;;;;;;;14.88;10.40;;;13.50;99.90;;;;;;5102472;28;20030;-80
2023/05/03 01:17:37;;;;;;;13.18;10.38;;;13.50;99.90;;;;;;5094051;28;20028;-80
2023/05/03 01:20:10;;;;;;;13.40;11.02;;;13.60;99.90;;;;;;5094212;28;20031;-80
2023/05/03 01:22:57;;;;;;;15.70;11.50;;;13.50;99.90;;;;;;5095175;28;20021;-80
2023/05/03 01:25:23;;;;;;;16.25;11.88;;;13.50;99.90;;;;;;5093586;28;20158;-81
2023/05/03 01:27:49;;;;;;;14.60;10.13;;;13.50;99.90;;;;;;5093507;28;20028;-81
2023/05/03 01:30:15;;;;;;;13.57;10.10;;;13.50;99.90;;;;;;5098263;28;20393;-80
2023/05/03 01:32:47;;;;;;;16.85;11.70;;;13.50;99.90;;;;;;5097373;28;20196;-80
2023/05/03 01:35:32;;;;;;;21.92;13.43;;;13.50;99.90;;;;;;5076566;28;20520;-79
2023/05/03 01:37:59;;;;;;;21.20;13.23;;;13.50;99.90;;;;;;5094664;28;20369;-81
2023/05/03 01:40:28;;;;;;;19.35;12.05;;;13.50;99.90;;;;;;5093523;28;20515;-80
2023/05/03 01:42:55;;;;;;;17.77;10.88;;;13.40;99.90;;;;;;5094178;28;20077;-81
2023/05/03 01:45:21;;;;;;;21.95;12.38;;;13.40;99.90;;;;;;5093426;28;20024;-80
2023/05/03 01:47:47;;;;;;;20.80;12.05;;;13.30;99.90;;;;;;5095039;28;20470;-80
2023/05/03 01:50:13;;;;;;;18.02;11.52;;;13.40;99.90;;;;;;5094590;28;20028;-80
2023/05/03 01:52:39;;;;;;;17.20;11.18;;;13.30;99.90;;;;;;5095993;28;20032;-80
2023/05/03 01:55:05;;;;;;;17.08;11.13;;;13.30;99.90;;;;;;5114223;28;20024;-81
2023/05/03 01:57:31;;;;;;;17.02;11.00;;;13.30;99.90;;;;;;5095315;28;20024;-80
2023/05/03 01:59:57;;;;;;;17.33;10.93;;;13.30;99.90;;;;;;5113594;28;20069;-81
2023/05/03 02:02:22;;;;;;;14.75;10.65;;;13.30;99.90;;;;;;5113785;28;20090;-80
2023/05/03 02:04:49;;;;;;;17.35;10.73;;;13.20;99.90;;;;;;5113753;28;20019;-80
2023/05/03 02:07:15;;;;;;;14.32;9.93;;;13.20;99.90;;;;;;5108779;28;20024;-81
2023/05/03 02:09:40;;;;;;;22.70;12.70;;;13.20;99.90;;;;;;5113253;28;20023;-80
2023/05/03 02:12:06;;;;;;;23.17;13.18;;;13.20;99.90;;;;;;5093947;28;20023;-80
2023/05/03 02:14:32;;;;;;;23.17;10.88;;;13.20;99.90;;;;;;5095679;28;20377;-82
2023/05/03 02:16:59;;;;;;;13.18;10.05;;;13.20;99.90;;;;;;5095103;28;20438;-81
2023/05/03 02:19:25;;;;;;;15.15;10.38;;;13.20;99.90;;;;;;5095098;28;20153;-80
2023/05/03 02:21:51;;;;;;;15.88;10.25;;;13.10;99.90;;;;;;5108671;28;20023;-80
2023/05/03 02:24:18;;;;;;;15.57;11.13;;;13.10;99.90;;;;;;5088805;28;20397;-81
2023/05/03 02:26:44;;;;;;;17.88;11.25;;;13.10;99.90;;;;;;5092008;28;20335;-80
2023/05/03 02:29:10;;;;;;;17.45;11.13;;;13.10;99.90;;;;;;5092290;28;20089;-80
2023/05/03 02:31:36;;;;;;;14.88;9.88;;;13.10;99.90;;;;;;5098811;28;20022;-80
2023/05/03 02:34:02;;;;;;;15.43;11.85;;;13.00;99.90;;;;;;5092376;28;20111;-80
2023/05/03 02:36:28;;;;;;;17.85;10.50;;;13.00;99.90;;;;;;5092553;28;20052;-80
2023/05/03 02:38:53;;;;;;;16.52;10.85;;;13.10;99.90;;;;;;5093425;28;20028;-81
2023/05/03 02:41:20;;;;;;;15.88;10.88;;;13.00;99.90;;;;;;5095338;28;20020;-80
2023/05/03 02:43:46;;;;;;;14.85;10.00;;;13.00;99.90;;;;;;5094772;28;20019;-81
2023/05/03 02:46:11;;;;;;;19.52;11.68;;;13.10;99.90;;;;;;5112781;28;20092;-81
2023/05/03 02:48:37;;;;;;;15.05;11.65;;;13.00;99.90;;;;;;5112415;28;20031;-80
2023/05/03 02:51:04;;;;;;;17.38;10.98;;;13.00;99.90;;;;;;5095107;28;20460;-80
2023/05/03 02:53:30;;;;;;;12.40;10.00;;;13.00;99.90;;;;;;5082113;28;20020;-80
2023/05/03 02:55:56;;;;;;;15.15;10.43;;;13.00;99.90;;;;;;5093774;28;20481;-80
2023/05/03 02:58:22;;;;;;;15.88;10.43;;;12.90;99.90;;;;;;5094634;28;20023;-81
2023/05/03 03:00:47;;;;;;;15.63;10.48;;;13.00;99.90;;;;;;5106376;28;20027;-80
2023/05/03 03:03:13;;;;;;;19.63;10.02;;;12.90;99.90;;;;;;5094612;28;20020;-80
2023/05/03 03:05:39;;;;;;;16.38;9.60;;;12.90;99.90;;;;;;5108319;28;20028;-80
2023/05/03 03:08:05;;;;;;;15.82;10.52;;;12.80;99.90;;;;;;5093489;28;20122;-81
2023/05/03 03:10:31;;;;;;;15.57;11.65;;;12.80;99.90;;;;;;5110042;28;20030;-81
2023/05/03 03:12:57;;;;;;;13.93;10.05;;;12.90;99.90;;;;;;5112686;28;20024;-80
2023/05/03 03:15:23;;;;;;;16.33;10.10;;;12.80;99.90;;;;;;5113662;28;20074;-80
2023/05/03 03:17:49;;;;;;;19.88;10.77;;;12.80;99.90;;;;;;5094961;28;20019;-81
2023/05/03 03:20:14;;;;;;;15.23;10.43;;;12.80;99.90;;;;;;5093954;28;20453;-80
2023/05/03 03:22:42;;;;;;;15.25;10.40;;;12.80;99.90;;;;;;5106595;28;20024;-80
2023/05/03 03:25:09;;;;;;;18.38;10.88;;;12.90;99.90;;;;;;5112764;28;20036;-81
2023/05/03 03:27:35;;;;;;;16.60;11.10;;;13.00;99.90;;;;;;5112658;28;20015;-81
2023/05/03 03:30:00;;;;;;;18.70;11.20;;;13.10;99.90;;;;;;5092174;28;20027;-79
2023/05/03 03:32:26;;;;;;;17.00;11.13;;;13.10;99.90;;;;;;5101660;28;20015;-79
2023/05/03 03:34:52;;;;;;;16.83;11.38;;;13.10;99.90;;;;;;5098950;28;20073;-79
2023/05/03 03:37:18;;;;;;;17.60;11.13;;;13.20;99.90;;;;;;5093433;28;20028;-79
2023/05/03 03:39:44;;;;;;;18.98;12.23;;;13.20;99.90;;;;;;5094413;28;20020;-79
2023/05/03 03:42:12;;;;;;;16.65;12.52;;;13.20;99.90;;;;;;5112646;28;20168;-79
2023/05/03 03:44:37;;;;;;;17.13;10.77;;;13.20;99.90;;;;;;5113270;28;20043;-79
2023/05/03 03:47:03;;;;;;;21.40;11.95;;;13.30;99.90;;;;;;5116153;28;20051;-79
2023/05/03 03:49:29;;;;;;;18.45;11.73;;;13.20;99.90;;;;;;5115835;28;20153;-79
2023/05/03 03:51:55;;;;;;;22.15;12.43;;;13.20;99.90;;;;;;5098163;28;20030;-79
2023/05/03 03:54:20;;;;;;;19.75;11.35;;;13.20;99.90;;;;;;5116063;28;20030;-78
2023/05/03 03:56:46;;;;;;;22.17;11.93;;;13.20;99.90;;;;;;5116003;28;20355;-79
2023/05/03 03:59:12;;;;;;;17.20;12.10;;;13.20;99.90;;;;;;5112626;28;20027;-79
2023/05/03 04:01:38;;;;;;;15.10;11.05;;;13.30;99.90;;;;;;5097093;28;20071;-79
2023/05/03 04:04:04;;;;;;;18.58;11.45;;;13.30;99.90;;;;;;5094157;28;20024;-79
2023/05/03 04:06:31;;;;;;;17.10;12.48;;;13.30;99.90;;;;;;5097862;28;20028;-79
2023/05/03 04:08:57;;;;;;;19.88;12.35;;;13.30;99.90;;;;;;5115222;28;20030;-79
2023/05/03 04:11:22;;;;;;;16.55;11.77;;;13.40;99.90;;;;;;5115954;28;20110;-79
2023/05/03 04:13:48;;;;;;;23.08;12.50;;;13.30;99.90;;;;;;5097051;28;20062;-80
2023/05/03 04:16:14;;;;;;;20.13;12.68;;;13.30;99.90;;;;;;5097403;28;20060;-81
2023/05/03 04:18:41;;;;;;;20.08;12.45;;;13.30;99.90;;;;;;5094270;28;20447;-80
2023/05/03 04:21:07;;;;;;;22.17;12.30;;;13.40;99.90;;;;;;5096234;28;20031;-79
2023/05/03 04:23:33;;;;;;;22.55;12.30;;;13.40;99.90;;;;;;5115118;28;20016;-79
2023/05/03 04:25:59;;;;;;;19.65;12.23;;;13.50;99.90;;;;;;5097407;28;20051;-82
2023/05/03 04:28:25;;;;;;;21.55;12.52;;;13.50;99.90;;;;;;5097351;28;20023;-81
2023/05/03 04:30:52;;;;;;;21.02;12.05;;;13.50;99.90;;;;;;5097348;28;20019;-80
2023/05/03 04:33:19;;;;;;;20.52;12.82;;;13.50;99.90;;;;;;5097394;28;20031;-80
2023/05/03 04:35:50;;;;;;;20.25;13.48;;;13.60;99.90;;;;;;5097363;28;20462;-80
2023/05/03 04:38:16;;;;;;;21.02;12.02;;;13.70;99.90;;;;;;5115159;28;20351;-80
2023/05/03 04:40:42;;;;;;;25.67;13.77;;;13.80;99.90;;;;;;5115898;28;20031;-80
2023/05/03 04:43:07;;;;;;;25.60;13.65;;;13.90;99.90;;;;;;5097128;28;20023;-81
2023/05/03 04:45:33;;;;;;;19.90;12.98;;;14.00;99.90;;;;;;5097127;28;20027;-80
2023/05/03 04:48:00;;;;;;;21.10;12.73;;;14.00;99.90;;;;;;5097198;28;20034;-82
2023/05/03 04:50:26;;;;;;;22.35;12.13;;;14.10;99.90;;;;;;5089045;28;20022;-81
2023/05/03 04:52:52;;;;;;;21.35;12.70;;;14.10;99.90;;;;;;5104387;28;20027;-81
2023/05/03 04:55:18;;;;;;;29.73;14.55;;;14.20;99.90;;;;;;5096885;28;20055;-80
2023/05/03 04:57:44;;;;;;;21.90;12.18;;;14.20;99.90;;;;;;5114779;28;20012;-81
2023/05/03 05:00:10;;;;;;;17.33;11.57;;;14.20;99.90;;;;;;5114671;28;20024;-81
2023/05/03 05:02:37;;;;;;;19.73;12.35;;;14.30;99.90;;;;;;5095686;28;20074;-81
2023/05/03 05:05:03;;;;;;;18.27;11.93;;;14.30;99.90;;;;;;5095314;28;20024;-81
2023/05/03 05:07:29;;;;;;;17.55;11.48;;;14.30;99.90;;;;;;5094258;28;20098;-81
2023/05/03 05:09:55;;;;;;;17.67;12.18;;;14.30;99.90;;;;;;5094494;28;20078;-81
2023/05/03 05:12:20;;;;;;;20.63;12.85;;;14.30;99.90;;;;;;5093706;28;20418;-82
2023/05/03 05:14:46;;;;;;;21.90;13.88;;;14.40;99.90;;;;;;5093996;28;20028;-81
2023/05/03 05:17:12;;;;;;;20.52;13.88;;;14.40;99.90;;;;;;5093984;28;20032;-80
2023/05/03 05:19:38;;;;;;;21.15;13.23;;;14.50;99.90;;;;;;5093598;28;20024;-81
2023/05/03 05:22:04;;;;;;;22.83;13.35;;;14.60;99.90;;;;;;5093979;28;20016;-81
2023/05/03 05:24:29;;;;;;;28.25;16.13;;;14.60;99.90;;;;;;5093643;28;20040;-81
2023/05/03 05:26:55;;;;;;;25.33;17.13;;;14.70;99.90;;;;;;5093412;28;20458;-81
2023/05/03 05:29:21;;;;;;;24.92;15.60;;;14.70;99.90;;;;;;5093733;28;20055;-80
2023/05/03 05:31:47;;;;;;;22.17;13.95;;;14.80;99.90;;;;;;5093467;28;20028;-85
2023/05/03 05:34:13;;;;;;;18.25;13.07;;;14.70;99.90;;;;;;5093766;28;20048;-84
2023/05/03 05:36:38;;;;;;;18.92;13.13;;;14.70;99.90;;;;;;5093654;28;20450;-84
2023/05/03 05:39:04;;;;;;;21.58;12.63;;;14.80;99.90;;;;;;5093709;28;20020;-84
2023/05/03 05:41:30;;;;;;;22.50;13.52;;;14.80;99.90;;;;;;5093290;28;20535;-84
2023/05/03 05:43:57;;;;;;;31.80;13.82;;;14.90;99.90;;;;;;5093474;28;20396;-85
2023/05/03 05:46:23;;;;;;;21.27;13.48;;;14.90;99.90;;;;;;5096449;28;20446;-84
2023/05/03 05:48:50;;;;;;;19.65;12.75;;;14.90;99.90;;;;;;5114945;28;20094;-83
2023/05/03 05:51:16;;;;;;;20.98;12.98;;;15.00;99.90;;;;;;5093338;28;20024;-84
2023/05/03 05:53:42;;;;;;;23.90;13.93;;;15.00;99.90;;;;;;5094360;28;20063;-85
2023/05/03 05:56:08;;;;;;;18.90;12.40;;;15.10;99.90;;;;;;5093689;28;20055;-84
2023/05/03 05:58:36;;;;;;;20.88;12.57;;;15.10;99.90;;;;;;5096628;28;20015;-84
2023/05/03 06:01:02;;;;;;;19.83;13.60;;;15.30;99.90;;;;;;5096300;28;20057;-85
2023/05/03 06:03:28;;;;;;;20.77;13.15;;;15.40;99.90;;;;;;5093248;28;20068;-84
2023/05/03 06:05:54;;;;;;;18.80;10.85;;;15.50;99.90;;;;;;5093229;28;20481;-85
2023/05/03 06:08:20;;;;;;;20.40;11.98;;;15.60;99.90;;;;;;5092098;28;20020;-84
2023/05/03 06:10:46;;;;;;;19.15;13.00;;;15.60;99.90;;;;;;5096546;28;20365;-84
2023/05/03 06:13:11;;;;;;;16.85;11.75;;;15.60;99.90;;;;;;5096041;28;20023;-84
2023/05/03 06:15:37;;;;;;;17.38;12.25;;;15.60;99.90;;;;;;5095678;28;20033;-85
2023/05/03 06:18:03;;;;;;;17.98;12.48;;;15.60;99.90;;;;;;5095030;28;20052;-85
2023/05/03 06:20:29;;;;;;;17.70;11.63;;;15.70;99.90;;;;;;5095968;28;20068;-85
2023/05/03 06:22:55;;;;;;;19.45;12.05;;;15.80;99.90;;;;;;5082220;28;20172;-85
2023/05/03 06:25:21;;;;;;;19.27;12.00;;;16.00;99.90;;;;;;5083367;28;20047;-86
2023/05/03 06:27:48;;;;;;;21.15;11.68;;;16.20;99.90;;;;;;5091433;28;20079;-86
2023/05/03 06:30:14;;;;;;;19.80;13.68;;;16.30;99.90;;;;;;5095094;28;20051;-83
2023/05/03 06:32:40;;;;;;;20.20;12.70;;;16.50;99.90;;;;;;5095943;28;20445;-84
2023/05/03 06:35:08;;;;;;;18.98;12.07;;;16.70;99.90;;;;;;5095637;28;20027;-86
2023/05/03 06:37:34;;;;;;;20.00;12.25;;;16.80;99.90;;;;;;5091782;28;20040;-86
2023/05/03 06:40:00;;;;;;;20.80;13.15;;;16.80;99.90;;;;;;5095800;28;20035;-84
2023/05/03 06:42:26;;;;;;;20.33;12.30;;;16.80;99.90;;;;;;5095505;28;20350;-85
2023/05/03 06:44:52;;;;;;;20.40;13.18;;;16.80;99.90;;;;;;5095966;28;20099;-84
2023/05/03 06:47:19;;;;;;;18.60;12.35;;;16.80;99.90;;;;;;5095895;28;20454;-86
2023/05/03 06:49:45;;;;;;;16.55;12.43;;;16.90;99.90;;;;;;5095783;28;20081;-85
2023/05/03 06:52:11;;;;;;;16.55;11.45;;;16.80;99.90;;;;;;5095996;28;20016;-86
2023/05/03 06:54:37;;;;;;;18.27;13.13;;;16.90;99.90;;;;;;5095806;28;20023;-84
2023/05/03 06:57:04;;;;;;;21.77;14.05;;;16.80;99.90;;;;;;5091506;28;20027;-84
2023/05/03 06:59:30;;;;;;;22.95;14.88;;;16.80;99.90;;;;;;5087990;28;20036;-85
2023/05/03 07:01:55;;;;;;;19.30;13.23;;;16.70;99.90;;;;;;5095227;28;20134;-85
2023/05/03 07:04:21;;;;;;;19.45;13.80;;;16.50;99.90;;;;;;5078994;28;20077;-84
2023/05/03 07:06:47;;;;;;;21.55;14.82;;;16.50;99.90;;;;;;5078600;28;20118;-85
2023/05/03 07:09:13;;;;;;;19.80;14.05;;;16.50;99.90;;;;;;5095799;28;20027;-83
2023/05/03 07:11:43;;;;;;;18.10;12.77;;;16.60;99.90;;;;;;5095394;28;20027;-84
2023/05/03 07:14:09;;;;;;;23.10;13.80;;;16.60;99.90;;;;;;5092605;28;20118;-84
2023/05/03 07:16:35;;;;;;;17.98;12.85;;;16.70;99.90;;;;;;5093012;28;20063;-85
2023/05/03 07:19:00;;;;;;;15.73;10.68;;;16.80;99.90;;;;;;5091491;28;20077;-85
2023/05/03 07:21:28;;;;;;;15.93;11.10;;;16.90;99.90;;;;;;5098674;28;20025;-84
2023/05/03 07:23:54;;;;;;;14.40;10.07;;;17.10;99.90;;;;;;5098340;28;20515;-84
2023/05/03 07:26:20;;;;;;;13.15;9.20;;;17.10;99.90;;;;;;5099143;28;20039;-84
2023/05/03 07:28:46;;;;;;;16.27;10.10;;;17.10;99.90;;;;;;5118048;28;20024;-85
2023/05/03 07:31:11;;;;;;;18.00;9.82;;;17.10;99.90;;;;;;5099088;28;20023;-84
2023/05/03 07:33:37;;;;;;;12.65;9.70;;;17.20;99.90;;;;;;5095476;28;20028;-86
2023/05/03 07:36:04;;;;;;;10.77;8.95;;;17.30;99.90;;;;;;5099468;28;20070;-86
2023/05/03 07:38:30;;;;;;;12.93;9.13;;;17.40;99.90;;;;;;5099195;28;20118;-86
2023/05/03 07:40:56;;;;;;;10.98;8.55;;;17.40;99.90;;;;;;5094404;28;20445;-85
2023/05/03 07:43:22;;;;;;;9.55;8.48;;;17.40;99.90;;;;;;5095981;28;20118;-85
2023/05/03 07:45:48;;;;;;;13.52;8.60;;;17.40;99.90;;;;;;5095459;28;20040;-85
2023/05/03 07:48:19;;;;;;;10.30;7.82;;;17.50;99.90;;;;;;5095964;28;20024;-85
2023/05/03 07:50:45;;;;;;;10.05;7.18;;;17.40;99.90;;;;;;5096236;28;20016;-85
2023/05/03 07:53:11;;;;;;;7.25;6.38;;;17.50;99.90;;;;;;5095581;28;20035;-85
2023/05/03 07:55:37;;;;;;;9.60;6.97;;;17.50;99.90;;;;;;5095869;28;20110;-80
2023/05/03 07:58:04;;;;;;;8.65;5.90;;;17.50;99.90;;;;;;5098950;28;20119;-82
2023/05/03 08:00:30;;;;;;;9.93;7.88;;;17.60;99.90;;;;;;5098660;28;20028;-82
2023/05/03 08:02:56;;;;;;;7.80;7.00;;;17.60;99.90;;;;;;5095136;28;20023;-81
2023/05/03 08:05:22;;;;;;;12.70;7.80;;;17.50;99.90;;;;;;5095416;28;20024;-83
2023/05/03 08:07:48;;;;;;;9.52;7.05;;;17.40;99.90;;;;;;5094886;28;20035;-82
2023/05/03 08:10:14;;;;;;;10.40;7.65;;;17.40;99.90;;;;;;5095399;28;20026;-83
2023/05/03 08:12:40;;;;;;;9.52;7.53;;;17.40;99.90;;;;;;5095337;28;20059;-83
2023/05/03 08:15:07;;;;;;;8.05;7.25;;;17.40;99.90;;;;;;5082819;28;20029;-82
2023/05/03 08:17:40;;;;;;;7.28;6.35;;;17.60;99.90;;;;;;5090742;28;20047;-82
2023/05/03 08:20:07;;;;;;;12.70;7.07;;;17.70;99.20;;;;;;5098320;28;20023;-83
2023/05/03 08:22:35;;;;;;;7.75;6.65;;;17.80;99.90;;;;;;5098437;28;20488;-82
2023/05/03 08:25:03;;;;;;;8.07;6.35;;;17.90;99.90;;;;;;5094839;28;20491;-83
2023/05/03 08:27:29;;;;;;;6.07;5.15;;;17.90;97.90;;;;;;5095893;28;20026;-82
2023/05/03 08:29:54;;;;;;;7.72;6.97;;;17.90;93.30;;;;;;5094892;28;20020;-83
2023/05/03 08:32:21;;;;;;;7.45;5.70;;;18.00;91.50;;;;;;5094122;28;20028;-81
2023/05/03 08:34:48;;;;;;;7.68;6.18;;;18.10;87.30;;;;;;5094558;28;20024;-83
2023/05/03 08:37:14;;;;;;;5.78;5.32;;;18.10;81.70;;;;;;5096144;28;20115;-82
2023/05/03 08:39:39;;;;;;;6.88;5.50;;;18.20;75.90;;;;;;5094823;28;20411;-83
2023/05/03 08:42:07;;;;;;;5.85;5.25;;;18.20;71.80;;;;;;5094595;28;20339;-82
2023/05/03 08:44:37;;;;;;;5.88;5.38;;;18.40;74.20;;;;;;5094994;28;20047;-81
2023/05/03 08:47:05;;;;;;;7.78;5.80;;;18.60;77.70;;;;;;5094366;28;20118;-81
2023/05/03 08:49:33;;;;;;;6.80;6.15;;;18.70;73.60;;;;;;5094247;28;20016;-81
2023/05/03 08:52:01;;;;;;;6.50;5.80;;;18.90;78.10;;;;;;5094512;28;20139;-80
2023/05/03 08:54:26;;;;;;;6.55;5.00;;;19.00;79.80;;;;;;5093195;28;20061;-81
2023/05/03 08:56:52;;;;;;;6.10;5.60;;;18.90;77.30;;;;;;5092588;28;20119;-81
2023/05/03 08:59:18;;;;;;;5.50;5.10;;;18.80;70.10;;;;;;5074193;28;20028;-79
2023/05/03 09:01:44;;;;;;;6.00;5.50;;;18.80;70.70;;;;;;5074093;28;20524;-79
2023/05/03 09:04:10;;;;;;;9.10;5.97;;;18.80;69.20;;;;;;5079251;28;20020;-80
2023/05/03 09:06:37;;;;;;;6.07;5.50;;;19.00;68.70;;;;;;5094419;28;20032;-80
2023/05/03 09:09:08;;;;;;;5.70;5.07;;;19.30;67.90;;;;;;5073967;28;20035;-80
2023/05/03 09:11:36;;;;;;;6.95;5.32;;;19.80;68.20;;;;;;5073954;28;20115;-79
2023/05/03 09:14:13;;;;;;;5.50;5.10;;;20.00;65.70;;;;;;5075245;28;20021;-79
2023/05/03 09:16:41;;;;;;;5.63;5.07;;;20.10;64.70;;;;;;5088748;28;20059;-80
2023/05/03 09:19:11;;;;;;;6.97;5.20;;;20.30;65.70;;;;;;5082001;28;20024;-80
2023/05/03 09:21:45;;;;;;;4.95;4.53;;;20.40;65.50;;;;;;5073728;28;20025;-79
2023/05/03 09:24:15;;;;;;;4.97;4.57;;;20.40;63.30;;;;;;5076816;28;20047;-78
2023/05/03 09:26:42;;;;;;;6.07;4.68;;;20.30;62.70;;;;;;5094776;28;20035;-79
2023/05/03 09:29:08;;;;;;;8.52;5.72;;;20.30;61.50;;;;;;5094982;28;20020;-80
2023/05/03 09:31:35;;;;;;;5.70;5.20;;;20.30;63.20;;;;;;5093536;28;20118;-80
2023/05/03 09:34:03;;;;;;;5.93;5.25;;;20.00;58.80;;;;;;5093639;28;20429;-78
2023/05/03 09:36:45;;;;;;;7.88;5.50;;;19.90;61.50;;;;;;5093673;28;20084;-78
2023/05/03 09:39:18;;;;;;;5.68;5.00;;;20.10;61.60;;;;;;5093388;28;20034;-79
2023/05/03 09:41:45;;;;;;;6.80;4.63;;;20.10;63.50;;;;;;5093393;28;20077;-79
2023/05/03 09:44:11;;;;;;;5.45;4.70;;;20.20;62.40;;;;;;5093832;28;20031;-80
2023/05/03 09:46:37;;;;;;;5.00;4.60;;;20.20;61.00;;;;;;5094669;28;20074;-78
2023/05/03 09:49:03;;;;;;;5.10;4.60;;;20.10;59.90;;;;;;5093173;28;20111;-79
2023/05/03 09:51:33;;;;;;;5.97;4.82;;;19.90;61.50;;;;;;5094382;28;20058;-80
2023/05/03 09:53:59;;;;;;;5.10;4.60;;;20.00;61.50;;;;;;5094696;28;20033;-82
2023/05/03 09:56:27;;;;;;;4.63;4.22;;;19.90;61.00;;;;;;5093103;28;20028;-79
2023/05/03 09:58:53;;;;;;;7.57;4.63;;;19.80;59.90;;;;;;5113605;28;20465;-80
2023/05/03 10:01:23;;;;;;;5.05;4.55;;;20.00;61.30;;;;;;5093192;28;20024;-79
2023/05/03 10:03:50;;;;;;;5.82;4.68;;;20.10;60.00;;;;;;5099112;28;20020;-77
2023/05/03 10:06:23;;;;;;;7.38;4.40;;;20.20;63.00;;;;;;5092786;28;20032;-78
2023/05/03 10:09:07;;;;;;;8.30;4.82;;;20.10;60.10;;;;;;5102334;28;20501;-78
2023/05/03 10:11:37;;;;;;;5.45;4.93;;;20.20;62.60;;;;;;5108971;28;20093;-80
2023/05/03 10:14:06;;;;;;;5.55;5.05;;;20.40;61.70;;;;;;5094403;28;20092;-78
2023/05/03 10:16:37;;;;;;;6.82;5.10;;;20.30;61.90;;;;;;5093957;28;20024;-79
2023/05/03 10:19:12;;;;;;;4.83;4.50;;;20.10;60.30;;;;;;5094384;28;20023;-78
2023/05/03 10:22:07;;;;;;;6.30;4.65;;;20.20;62.50;;;;;;5107394;28;20267;-79
2023/05/03 10:24:34;;;;;;;6.00;4.13;;;19.80;61.40;;;;;;5073201;28;20040;-79
2023/05/03 10:27:00;;;;;;;5.30;4.13;;;19.70;62.10;;;;;;5093497;28;20118;-78
2023/05/03 10:29:36;;;;;;;5.72;4.70;;;19.50;64.60;;;;;;5094030;28;20028;-78
2023/05/03 10:32:25;;;;;;;5.72;4.65;;;19.50;66.80;;;;;;5092778;28;20023;-80
2023/05/03 10:34:57;;;;;;;6.53;4.93;;;19.40;65.50;;;;;;5093639;28;20028;-78
2023/05/03 10:37:26;;;;;;;5.20;4.57;;;19.20;66.40;;;;;;5092762;28;20123;-79
2023/05/03 10:39:52;;;;;;;5.40;4.90;;;19.10;63.30;;;;;;5092711;28;20043;-78
2023/05/03 10:42:22;;;;;;;4.88;4.47;;;18.80;64.90;;;;;;5093951;28;20046;-79
2023/05/03 10:44:54;;;;;;;5.47;5.00;;;18.50;65.50;;;;;;5092663;28;20024;-79
2023/05/03 10:47:25;;;;;;;5.18;4.78;;;18.20;65.80;;;;;;5092245;28;20035;-79
2023/05/03 10:50:17;;;;;;;6.30;5.13;;;18.10;67.50;;;;;;5092671;28;20043;-77
2023/05/03 10:52:42;;;;;;;;;;;18.10;67.90;;;;;;5071298;28;20032;-79
2023/05/03 10:55:17;;;;;;;7.53;5.50;;;18.00;67.80;;;;;;5096950;28;19910;-79
2023/05/03 10:57:45;;;;;;;5.22;4.82;;;17.90;70.20;;;;;;5108995;28;20023;-78
2023/05/03 11:00:18;;;;;;;10.88;5.78;;;17.90;69.60;;;;;;5096682;28;20052;-78
2023/05/03 11:02:49;;;;;;;5.35;4.93;;;17.90;70.10;;;;;;5097612;28;20477;-79
2023/05/03 11:05:17;;;;;;;5.53;4.88;;;17.90;69.70;;;;;;5097479;28;20053;-78
2023/05/03 11:07:43;;;;;;;7.18;5.35;;;17.90;69.00;;;;;;5096747;28;20039;-79
2023/05/03 11:10:16;;;;;;;5.60;5.10;;;17.90;70.50;;;;;;5109188;28;20373;-78
2023/05/03 11:12:42;;;;;;;6.40;5.80;;;17.90;70.30;;;;;;5097743;28;20077;-81
2023/05/03 11:15:10;;;;;;;6.38;5.13;;;18.00;72.30;;;;;;5106568;28;20027;-78
2023/05/03 11:17:37;;;;;;;7.07;5.95;;;17.90;69.80;;;;;;5117814;28;20347;-78
2023/05/03 11:20:07;;;;;;;6.32;5.70;;;17.80;69.80;;;;;;5099254;28;20028;-78
2023/05/03 11:22:34;;;;;;;5.78;5.38;;;17.70;69.90;;;;;;5115200;28;20039;-77
2023/05/03 11:25:00;;;;;;;7.15;6.45;;;17.80;73.00;;;;;;5095858;28;20048;-77
2023/05/03 11:27:26;;;;;;;5.60;4.85;;;17.90;73.30;;;;;;5099587;28;20038;-78
2023/05/03 11:29:57;;;;;;;7.25;6.07;;;17.90;72.20;;;;;;5082258;28;20020;-78
2023/05/03 11:32:29;;;;;;;5.90;5.47;;;18.00;71.90;;;;;;5090035;28;20043;-79
2023/05/03 11:34:55;;;;;;;6.50;5.65;;;18.00;72.80;;;;;;5097440;28;20024;-79
2023/05/03 11:37:21;;;;;;;7.43;6.32;;;18.10;70.10;;;;;;5097020;28;20020;-77
2023/05/03 11:39:47;;;;;;;6.18;5.60;;;18.00;70.10;;;;;;5095917;28;20451;-77
2023/05/03 11:42:13;;;;;;;6.20;5.70;;;18.00;70.50;;;;;;5096467;28;20436;-76
2023/05/03 11:44:38;;;;;;;6.28;5.68;;;18.00;71.30;;;;;;5096792;28;20020;-78
2023/05/03 11:47:04;;;;;;;7.30;5.68;;;18.20;74.20;;;;;;5095684;28;20040;-78
2023/05/03 11:49:30;;;;;;;6.25;5.68;;;18.20;73.20;;;;;;5099091;28;20019;-78
2023/05/03 11:51:56;;;;;;;5.68;5.18;;;18.40;73.40;;;;;;5103629;28;20477;-77
2023/05/03 11:54:23;;;;;;;7.28;6.30;;;18.20;68.70;;;;;;5096916;28;20024;-77
2023/05/03 11:56:50;;;;;;;7.22;6.38;;;18.20;68.50;;;;;;5096950;28;20130;-77
2023/05/03 11:59:16;;;;;;;6.38;5.78;;;18.30;68.80;;;;;;5095265;28;20455;-78
2023/05/03 12:01:42;;;;;;;7.03;6.32;;;18.30;67.60;;;;;;5097075;28;20450;-77
2023/05/03 12:04:08;;;;;;;8.52;5.70;;;18.40;70.60;;;;;;5098575;28;20031;-78
2023/05/03 12:06:36;;;;;;;6.38;5.80;;;18.40;70.00;;;;;;5116059;28;20035;-78
2023/05/03 12:09:03;;;;;;;8.57;5.50;;;18.20;68.70;;;;;;5095305;28;20059;-78
2023/05/03 12:11:29;;;;;;;5.80;4.80;;;18.10;70.50;;;;;;5096380;28;20016;-78
2023/05/03 12:14:01;;;;;;;5.97;5.47;;;18.10;67.40;;;;;;5095312;28;20028;-78
2023/05/03 12:16:27;;;;;;;6.07;5.57;;;18.10;67.10;;;;;;5096579;28;20020;-77
2023/05/03 12:19:01;;;;;;;5.90;5.30;;;18.40;69.20;;;;;;5101153;28;20031;-78
2023/05/03 12:21:46;;;;;;;5.10;4.70;;;18.60;68.40;;;;;;5097809;28;20114;-77
2023/05/03 12:24:16;;;;;;;6.72;5.53;;;18.60;66.40;;;;;;5080265;28;20104;-79
2023/05/03 12:26:43;;;;;;;7.40;5.82;;;18.90;70.20;;;;;;5116232;28;20028;-79
2023/05/03 12:29:09;;;;;;;6.85;6.25;;;19.00;68.40;;;;;;5116435;28;20019;-78
2023/05/03 12:31:36;;;;;;;6.50;5.90;;;19.10;67.80;;;;;;5098164;28;20027;-78
2023/05/03 12:34:03;;;;;;;6.15;5.63;;;19.10;63.80;;;;;;5097719;28;20453;-77
2023/05/03 12:36:31;;;;;;;6.88;5.80;;;19.20;65.30;;;;;;5115968;28;20479;-79